Time;durP1;ratioP1;P1;durP2;ratioP2;P2;SDS_P1;SDS_P2;PMS_P1;PMS_P2;Temp;Humidity;BMP_temperature;BMP_pressure;BME280_temperature;BME280_humidity;BME280_pressure;Samples;Min_cycle;Max_cycle;Signal;HPM_P1;HPM_P2
2022/02/19 00:02:07;;;;;;;19.58;2.95;;;6.50;99.10;;;;;;5064910;28;21533;-70
2022/02/19 00:04:33;;;;;;;16.98;2.92;;;6.50;99.30;;;;;;5070323;28;20040;-69
2022/02/19 00:06:58;;;;;;;16.58;2.72;;;6.40;99.90;;;;;;5068781;28;20139;-69
2022/02/19 00:09:24;;;;;;;21.70;2.72;;;6.50;99.80;;;;;;5069293;28;20033;-70
2022/02/19 00:11:50;;;;;;;14.93;2.95;;;6.50;99.90;;;;;;5069392;28;20048;-69
2022/02/19 00:14:16;;;;;;;22.48;3.08;;;6.50;99.90;;;;;;5067929;28;20033;-68
2022/02/19 00:16:42;;;;;;;15.95;2.55;;;6.50;99.90;;;;;;5070001;28;20077;-69
2022/02/19 00:19:08;;;;;;;15.57;2.60;;;6.40;99.90;;;;;;5069727;28;20502;-68
2022/02/19 00:21:34;;;;;;;21.45;3.47;;;6.50;99.90;;;;;;5068661;28;20047;-68
2022/02/19 00:23:59;;;;;;;19.83;3.10;;;6.40;99.90;;;;;;5067993;28;20056;-71
2022/02/19 00:26:25;;;;;;;14.98;2.75;;;6.40;99.90;;;;;;5068955;28;20044;-71
2022/02/19 00:28:51;;;;;;;22.55;4.30;;;6.40;99.90;;;;;;5070895;28;20033;-69
2022/02/19 00:31:17;;;;;;;20.77;4.07;;;6.40;99.90;;;;;;5069508;28;20035;-70
2022/02/19 00:33:43;;;;;;;15.57;2.53;;;6.40;99.90;;;;;;5070634;28;20032;-69
2022/02/19 00:36:09;;;;;;;17.63;2.53;;;6.40;99.90;;;;;;5064644;28;20040;-69
2022/02/19 00:38:35;;;;;;;16.08;2.83;;;6.40;99.90;;;;;;5098704;28;20077;-71
2022/02/19 00:41:01;;;;;;;18.80;2.60;;;6.40;99.90;;;;;;5068958;28;20040;-68
2022/02/19 00:43:27;;;;;;;21.50;2.72;;;6.40;99.90;;;;;;5066947;28;20048;-70
2022/02/19 00:45:55;;;;;;;13.75;2.40;;;6.40;99.90;;;;;;5066067;28;20039;-71
2022/02/19 00:48:22;;;;;;;15.68;3.08;;;6.40;99.90;;;;;;5068743;28;20053;-70
2022/02/19 00:50:48;;;;;;;18.52;3.33;;;6.30;99.90;;;;;;5066188;28;20136;-71
2022/02/19 00:53:14;;;;;;;15.15;2.67;;;6.30;99.90;;;;;;5071016;28;20449;-68
2022/02/19 00:55:40;;;;;;;20.52;3.00;;;6.30;99.90;;;;;;5068755;28;20037;-67
2022/02/19 00:58:06;;;;;;;16.50;3.00;;;6.30;99.90;;;;;;5068420;28;20501;-67
2022/02/19 01:00:32;;;;;;;24.80;3.55;;;6.30;99.90;;;;;;5083169;28;20120;-67
2022/02/19 01:02:58;;;;;;;21.42;2.65;;;6.30;99.90;;;;;;5068764;28;20410;-67
2022/02/19 01:05:23;;;;;;;16.83;2.70;;;6.20;99.90;;;;;;5068318;28;20043;-67
2022/02/19 01:07:49;;;;;;;21.17;4.05;;;6.20;99.90;;;;;;5066354;28;20044;-68
2022/02/19 01:10:14;;;;;;;17.60;3.33;;;6.20;99.90;;;;;;5069655;28;20040;-67
2022/02/19 01:12:40;;;;;;;18.30;2.95;;;6.10;99.90;;;;;;5067422;28;20102;-67
2022/02/19 01:15:07;;;;;;;19.80;2.63;;;6.10;99.90;;;;;;5067355;28;20123;-67
2022/02/19 01:17:33;;;;;;;23.70;4.25;;;6.00;99.90;;;;;;5095491;28;20056;-68
2022/02/19 01:19:59;;;;;;;20.95;3.65;;;6.00;99.90;;;;;;5067563;28;20564;-68
2022/02/19 01:22:25;;;;;;;24.83;4.45;;;5.90;99.90;;;;;;5096058;28;20044;-68
2022/02/19 01:24:50;;;;;;;20.88;2.83;;;5.70;99.90;;;;;;5061522;28;20044;-68
2022/02/19 01:27:16;;;;;;;17.23;3.30;;;5.60;99.90;;;;;;5066313;28;20045;-67
2022/02/19 01:29:41;;;;;;;19.10;3.08;;;5.60;99.90;;;;;;5068536;28;20050;-68
2022/02/19 01:32:07;;;;;;;27.45;3.65;;;5.50;99.90;;;;;;5069355;28;20037;-68
2022/02/19 01:34:33;;;;;;;19.95;3.90;;;5.50;99.90;;;;;;5066016;28;20793;-68
2022/02/19 01:36:59;;;;;;;24.10;3.47;;;5.40;99.90;;;;;;5067337;28;20095;-68
2022/02/19 01:39:24;;;;;;;24.10;5.28;;;5.30;99.90;;;;;;5065463;28;20048;-68
2022/02/19 01:41:50;;;;;;;20.70;3.35;;;5.30;99.90;;;;;;5066668;28;20041;-68
2022/02/19 01:44:16;;;;;;;23.25;3.83;;;5.30;99.90;;;;;;5067005;28;20082;-68
2022/02/19 01:46:42;;;;;;;21.80;4.13;;;5.30;99.90;;;;;;5054610;28;20135;-67
2022/02/19 01:49:08;;;;;;;26.77;3.70;;;5.30;99.90;;;;;;5070692;28;20465;-68
2022/02/19 01:51:35;;;;;;;22.80;4.97;;;5.30;99.90;;;;;;5072680;28;20356;-68
2022/02/19 01:54:06;;;;;;;20.40;2.88;;;5.20;99.90;;;;;;5097218;28;20047;-68
2022/02/19 01:56:35;;;;;;;16.17;2.50;;;5.20;99.90;;;;;;5069852;28;20059;-68
2022/02/19 01:59:00;;;;;;;9.20;1.52;;;5.20;99.90;;;;;;5073131;28;20419;-68
2022/02/19 02:01:26;;;;;;;13.55;2.10;;;5.10;99.90;;;;;;5069065;28;20139;-68
2022/02/19 02:03:52;;;;;;;15.05;2.08;;;5.10;99.90;;;;;;5071511;28;20059;-68
2022/02/19 02:06:21;;;;;;;10.80;2.03;;;5.00;99.90;;;;;;5071603;28;20032;-68
2022/02/19 02:08:47;;;;;;;12.05;1.80;;;5.10;99.90;;;;;;5068783;28;20040;-68
2022/02/19 02:11:13;;;;;;;8.15;1.70;;;5.00;99.90;;;;;;5068437;28;20090;-69
2022/02/19 02:13:39;;;;;;;7.72;1.33;;;5.00;99.90;;;;;;5069928;28;20037;-68
2022/02/19 02:16:05;;;;;;;10.38;2.15;;;5.00;99.90;;;;;;5072599;28;20039;-68
2022/02/19 02:18:30;;;;;;;9.88;1.88;;;5.00;99.90;;;;;;5070790;28;20424;-68
2022/02/19 02:20:56;;;;;;;12.35;2.13;;;4.90;99.90;;;;;;5099445;28;20041;-68
2022/02/19 02:23:22;;;;;;;6.72;1.30;;;4.90;99.90;;;;;;5068231;28;20504;-68
2022/02/19 02:25:47;;;;;;;6.70;0.88;;;4.90;99.90;;;;;;5069969;28;20436;-68
2022/02/19 02:28:13;;;;;;;2.80;0.60;;;5.00;99.90;;;;;;5077058;28;20076;-68
2022/02/19 02:30:39;;;;;;;5.40;1.05;;;5.00;99.90;;;;;;5071960;28;20059;-68
2022/02/19 02:33:07;;;;;;;10.02;0.90;;;5.00;99.90;;;;;;5072130;28;20397;-68
2022/02/19 02:35:34;;;;;;;3.95;0.68;;;4.90;99.90;;;;;;5071698;28;20040;-68
2022/02/19 02:38:00;;;;;;;7.80;1.20;;;4.90;99.90;;;;;;5069794;28;20493;-68
2022/02/19 02:40:25;;;;;;;8.20;1.33;;;4.90;99.90;;;;;;5071318;28;20036;-68
2022/02/19 02:42:51;;;;;;;11.85;1.45;;;4.90;99.90;;;;;;5070947;28;20041;-68
2022/02/19 02:45:16;;;;;;;10.13;1.48;;;4.90;99.90;;;;;;5068269;28;20048;-68
2022/02/19 02:47:43;;;;;;;13.52;1.65;;;4.90;99.90;;;;;;5068585;28;20047;-68
2022/02/19 02:50:10;;;;;;;17.63;2.22;;;4.90;99.90;;;;;;5068365;28;20036;-68
2022/02/19 02:52:40;;;;;;;17.33;2.72;;;4.90;99.90;;;;;;5066800;28;20044;-68
2022/02/19 02:55:07;;;;;;;9.68;1.65;;;4.90;99.90;;;;;;5068690;28;20075;-68
2022/02/19 02:57:34;;;;;;;7.88;1.55;;;4.90;99.90;;;;;;5076470;28;20032;-68
2022/02/19 03:00:00;;;;;;;7.50;1.17;;;4.80;99.90;;;;;;5068870;28;20071;-68
2022/02/19 03:02:29;;;;;;;7.25;1.42;;;4.80;99.90;;;;;;5069545;28;20070;-68
2022/02/19 03:04:56;;;;;;;11.68;1.85;;;4.80;99.90;;;;;;5066787;28;20558;-67
2022/02/19 03:07:22;;;;;;;11.32;1.60;;;4.80;99.90;;;;;;5071287;28;20389;-68
2022/02/19 03:09:47;;;;;;;18.90;2.22;;;4.80;99.90;;;;;;5099249;28;20067;-68
2022/02/19 03:12:13;;;;;;;12.75;1.67;;;4.80;99.90;;;;;;5070101;28;20040;-68
2022/02/19 03:14:39;;;;;;;18.13;2.30;;;4.80;99.90;;;;;;5070631;28;20074;-68
2022/02/19 03:17:04;;;;;;;15.60;2.50;;;4.90;99.90;;;;;;5072972;28;20043;-68
2022/02/19 03:19:31;;;;;;;20.13;2.20;;;4.80;99.90;;;;;;5067856;28;20040;-69
2022/02/19 03:21:57;;;;;;;16.35;3.30;;;4.80;99.90;;;;;;5069833;28;20055;-68
2022/02/19 03:24:22;;;;;;;21.38;2.10;;;4.80;99.90;;;;;;5068584;28;20037;-68
2022/02/19 03:26:48;;;;;;;14.32;2.38;;;4.90;99.90;;;;;;5069557;28;20052;-68
2022/02/19 03:29:14;;;;;;;19.65;3.63;;;4.90;99.90;;;;;;5071559;28;20355;-68
2022/02/19 03:31:39;;;;;;;17.42;2.10;;;4.90;99.90;;;;;;5066152;28;20137;-68
2022/02/19 03:34:05;;;;;;;11.25;2.00;;;4.90;99.90;;;;;;5070457;28;20037;-68
2022/02/19 03:36:30;;;;;;;13.27;2.38;;;4.90;99.90;;;;;;5050934;28;20051;-68
2022/02/19 03:38:56;;;;;;;13.65;1.92;;;4.90;99.90;;;;;;5068795;28;20402;-67
2022/02/19 03:41:22;;;;;;;12.27;2.35;;;4.80;99.90;;;;;;5068153;28;20048;-68
2022/02/19 03:43:47;;;;;;;10.55;1.95;;;4.80;99.90;;;;;;5088997;28;20043;-67
2022/02/19 03:46:13;;;;;;;7.60;1.67;;;4.80;99.90;;;;;;5071041;28;20123;-68
2022/02/19 03:48:39;;;;;;;13.57;1.75;;;4.70;99.90;;;;;;5071078;28;20522;-69
2022/02/19 03:51:05;;;;;;;7.40;1.27;;;4.70;99.90;;;;;;5068362;28;20040;-68
2022/02/19 03:53:31;;;;;;;9.90;1.35;;;4.70;99.90;;;;;;5070279;28;20058;-68
2022/02/19 03:55:56;;;;;;;14.48;1.58;;;4.60;99.90;;;;;;5068858;28;20040;-68
2022/02/19 03:58:22;;;;;;;10.13;1.85;;;4.60;99.90;;;;;;5074419;28;20048;-68
2022/02/19 04:00:48;;;;;;;13.80;2.08;;;4.60;99.90;;;;;;5069602;28;20040;-68
2022/02/19 04:03:13;;;;;;;15.40;3.03;;;4.70;99.90;;;;;;5098206;28;20051;-69
2022/02/19 04:05:40;;;;;;;15.00;2.05;;;4.70;99.90;;;;;;5071055;28;20051;-68
2022/02/19 04:08:06;;;;;;;11.95;1.98;;;4.70;99.90;;;;;;5066878;28;20056;-68
2022/02/19 04:10:32;;;;;;;9.50;1.73;;;4.60;99.90;;;;;;5069902;28;20530;-68
2022/02/19 04:12:58;;;;;;;9.55;1.30;;;4.70;99.90;;;;;;5069173;28;20078;-68
2022/02/19 04:15:24;;;;;;;8.95;0.70;;;4.70;99.90;;;;;;5070374;28;20056;-68
2022/02/19 04:17:49;;;;;;;7.65;1.00;;;4.60;99.90;;;;;;5068879;28;20284;-68
2022/02/19 04:20:15;;;;;;;9.68;1.30;;;4.60;99.90;;;;;;5070048;28;20499;-68
2022/02/19 04:22:43;;;;;;;5.03;1.00;;;4.60;99.90;;;;;;5068388;28;20040;-68
2022/02/19 04:25:11;;;;;;;7.63;1.00;;;4.50;99.90;;;;;;5071944;28;20072;-68
2022/02/19 04:27:37;;;;;;;7.03;1.20;;;4.50;99.90;;;;;;5071183;28;20490;-68
2022/02/19 04:30:07;;;;;;;12.30;1.20;;;4.40;99.90;;;;;;5070990;28;20043;-68
2022/02/19 04:32:38;;;;;;;8.68;1.42;;;4.40;99.90;;;;;;5070520;28;20036;-68
2022/02/19 04:35:04;;;;;;;14.07;1.77;;;4.30;99.90;;;;;;5067375;28;20123;-68
2022/02/19 04:37:30;;;;;;;11.88;1.95;;;4.30;99.90;;;;;;5068169;28;20478;-68
2022/02/19 04:39:55;;;;;;;17.30;1.95;;;4.30;99.90;;;;;;5067191;28;20129;-68
2022/02/19 04:42:21;;;;;;;13.40;1.60;;;4.20;99.90;;;;;;5069299;28;20509;-68
2022/02/19 04:44:46;;;;;;;18.20;2.30;;;4.20;99.90;;;;;;5069700;28;20131;-68
2022/02/19 04:47:12;;;;;;;15.75;2.35;;;4.20;99.90;;;;;;5068664;28;20084;-68
2022/02/19 04:49:37;;;;;;;18.02;3.42;;;4.30;99.90;;;;;;5069124;28;20047;-68
2022/02/19 04:52:03;;;;;;;19.90;2.30;;;4.30;99.90;;;;;;5067785;28;20475;-67
2022/02/19 04:54:29;;;;;;;16.83;2.40;;;4.30;99.90;;;;;;5096297;28;20478;-68
2022/02/19 04:56:55;;;;;;;21.15;3.75;;;4.30;99.90;;;;;;5069469;28;20052;-68
2022/02/19 04:59:20;;;;;;;18.60;2.53;;;4.30;99.90;;;;;;5072265;28;20029;-68
2022/02/19 05:01:48;;;;;;;15.20;2.65;;;4.40;99.90;;;;;;5068728;28;20037;-68
2022/02/19 05:04:14;;;;;;;17.65;2.75;;;4.40;99.90;;;;;;5069764;28;20036;-68
2022/02/19 05:06:39;;;;;;;13.95;4.13;;;4.40;99.90;;;;;;5068541;28;20049;-68
2022/02/19 05:09:05;;;;;;;22.02;3.45;;;4.50;99.90;;;;;;5064246;28;20036;-68
2022/02/19 05:11:30;;;;;;;27.70;4.03;;;4.50;99.90;;;;;;5070275;28;20066;-68
2022/02/19 05:13:56;;;;;;;23.83;4.05;;;4.60;99.90;;;;;;5068158;28;20037;-68
2022/02/19 05:16:21;;;;;;;19.02;3.60;;;4.60;99.90;;;;;;5070204;28;20025;-68
2022/02/19 05:18:47;;;;;;;21.20;2.75;;;4.60;99.90;;;;;;5069988;28;20037;-68
2022/02/19 05:21:13;;;;;;;21.08;4.03;;;4.70;99.90;;;;;;5072672;28;20096;-68
2022/02/19 05:23:38;;;;;;;16.98;3.15;;;4.70;99.90;;;;;;5072420;28;20037;-67
2022/02/19 05:26:04;;;;;;;18.75;2.97;;;4.70;99.90;;;;;;5075477;28;20040;-68
2022/02/19 05:28:30;;;;;;;17.35;3.03;;;4.70;99.90;;;;;;5074730;28;20041;-68
2022/02/19 05:30:55;;;;;;;19.20;3.88;;;4.70;99.90;;;;;;5072893;28;20032;-68
2022/02/19 05:33:21;;;;;;;15.85;2.95;;;4.70;99.90;;;;;;5071064;28;20168;-68
2022/02/19 05:35:47;;;;;;;17.52;3.08;;;4.70;99.90;;;;;;5071536;28;20055;-68
2022/02/19 05:38:12;;;;;;;24.77;3.05;;;4.70;99.90;;;;;;5072108;28;20036;-68
2022/02/19 05:40:38;;;;;;;17.35;2.97;;;4.70;99.90;;;;;;5070839;28;20112;-69
2022/02/19 05:43:04;;;;;;;23.25;3.28;;;4.70;99.90;;;;;;5089669;28;20126;-68
2022/02/19 05:45:31;;;;;;;19.85;2.67;;;4.70;99.90;;;;;;5073992;28;20094;-68
2022/02/19 05:47:58;;;;;;;22.02;3.60;;;4.70;99.90;;;;;;5099754;28;20551;-69
2022/02/19 05:50:25;;;;;;;13.82;2.45;;;4.60;99.90;;;;;;5073012;28;20041;-69
2022/02/19 05:52:50;;;;;;;18.63;2.63;;;4.70;99.90;;;;;;5101239;28;20041;-69
2022/02/19 05:55:16;;;;;;;16.30;3.00;;;4.70;99.90;;;;;;5073083;28;20035;-68
2022/02/19 05:57:43;;;;;;;13.68;2.13;;;4.70;99.90;;;;;;5074030;28;20087;-68
2022/02/19 06:00:11;;;;;;;19.17;3.70;;;4.70;99.90;;;;;;5068127;28;20067;-69
2022/02/19 06:02:37;;;;;;;16.33;2.13;;;4.70;99.90;;;;;;5070241;28;20048;-68
2022/02/19 06:05:03;;;;;;;17.90;2.05;;;4.70;99.90;;;;;;5069009;28;20037;-68
2022/02/19 06:07:30;;;;;;;20.45;2.63;;;4.70;99.90;;;;;;5068237;28;20047;-68
2022/02/19 06:09:55;;;;;;;19.98;2.67;;;4.70;99.90;;;;;;5072025;28;20040;-69
2022/02/19 06:12:21;;;;;;;26.77;2.90;;;4.60;99.90;;;;;;5072348;28;20024;-69
2022/02/19 06:14:48;;;;;;;19.90;2.63;;;4.60;99.90;;;;;;5072588;28;20040;-69
2022/02/19 06:17:14;;;;;;;14.52;2.45;;;4.60;99.90;;;;;;5066390;28;20039;-68
2022/02/19 06:19:40;;;;;;;17.08;3.03;;;4.60;99.90;;;;;;5073652;28;20525;-69
2022/02/19 06:22:06;;;;;;;19.17;3.10;;;4.60;99.90;;;;;;5098774;28;20126;-69
2022/02/19 06:24:31;;;;;;;13.85;2.08;;;4.50;99.90;;;;;;5069564;28;20125;-69
2022/02/19 06:26:57;;;;;;;9.68;2.15;;;4.50;99.90;;;;;;5070724;28;20070;-68
2022/02/19 06:29:23;;;;;;;13.23;1.80;;;4.50;99.90;;;;;;5076142;28;20394;-68
2022/02/19 06:31:48;;;;;;;9.48;1.73;;;4.50;99.90;;;;;;5070059;28;20048;-68
2022/02/19 06:34:14;;;;;;;16.40;1.95;;;4.50;99.90;;;;;;5070604;28;20051;-67
2022/02/19 06:36:40;;;;;;;13.50;2.15;;;4.50;99.90;;;;;;5068868;28;20457;-68
2022/02/19 06:39:06;;;;;;;16.70;2.53;;;4.50;99.90;;;;;;5101860;28;20028;-68
2022/02/19 06:41:32;;;;;;;12.63;2.15;;;4.50;99.90;;;;;;5070341;28;20041;-68
2022/02/19 06:43:57;;;;;;;20.15;2.95;;;4.50;99.90;;;;;;5069733;28;20089;-69
2022/02/19 06:46:23;;;;;;;29.95;3.58;;;4.50;99.90;;;;;;5067689;28;20498;-68
2022/02/19 06:48:49;;;;;;;14.68;2.25;;;4.50;99.90;;;;;;5067717;28;20075;-68
2022/02/19 06:51:15;;;;;;;16.02;2.22;;;4.50;99.90;;;;;;5071975;28;20076;-69
2022/02/19 06:53:41;;;;;;;16.35;2.08;;;4.50;99.90;;;;;;5070467;28;20041;-68
2022/02/19 06:56:08;;;;;;;22.40;3.65;;;4.50;99.90;;;;;;5070368;28;20094;-68
2022/02/19 06:58:33;;;;;;;15.23;2.30;;;4.50;99.90;;;;;;5070191;28;20076;-68
2022/02/19 07:00:59;;;;;;;12.10;1.63;;;4.50;99.90;;;;;;5068719;28;20071;-68
2022/02/19 07:03:26;;;;;;;17.52;2.33;;;4.50;99.90;;;;;;5064489;28;20024;-68
2022/02/19 07:05:53;;;;;;;17.23;2.70;;;4.40;99.90;;;;;;5067959;28;20044;-68
2022/02/19 07:08:20;;;;;;;13.65;2.15;;;4.50;99.90;;;;;;5070163;28;20044;-68
2022/02/19 07:10:47;;;;;;;14.82;1.73;;;4.50;99.90;;;;;;5068678;28;20048;-68
2022/02/19 07:13:13;;;;;;;16.00;2.83;;;4.50;99.90;;;;;;5099122;28;20041;-68
2022/02/19 07:15:40;;;;;;;16.17;1.83;;;4.60;99.90;;;;;;5066522;28;20041;-68
2022/02/19 07:18:06;;;;;;;12.10;1.92;;;4.60;99.90;;;;;;5069548;28;20166;-68
2022/02/19 07:20:36;;;;;;;14.70;2.63;;;4.60;99.90;;;;;;5072997;28;20134;-68
2022/02/19 07:23:01;;;;;;;16.40;1.90;;;4.60;99.90;;;;;;5069199;28;20398;-68
2022/02/19 07:25:27;;;;;;;13.13;2.47;;;4.60;99.90;;;;;;5086560;28;20040;-68
2022/02/19 07:27:52;;;;;;;17.25;1.65;;;4.60;99.90;;;;;;5066883;28;20491;-68
2022/02/19 07:30:19;;;;;;;20.95;3.22;;;4.70;99.90;;;;;;5072816;28;20516;-68
2022/02/19 07:32:47;;;;;;;15.73;2.05;;;4.70;99.90;;;;;;5082588;28;20040;-68
2022/02/19 07:35:13;;;;;;;16.25;2.28;;;4.70;99.90;;;;;;5071098;28;20067;-68
2022/02/19 07:37:39;;;;;;;20.40;2.45;;;4.70;99.90;;;;;;5070728;28;20135;-68
2022/02/19 07:40:08;;;;;;;17.88;2.47;;;4.80;99.90;;;;;;5073730;28;20567;-68
2022/02/19 07:42:35;;;;;;;16.65;1.88;;;4.80;99.90;;;;;;5069552;28;20074;-67
2022/02/19 07:45:01;;;;;;;19.10;1.98;;;4.80;99.90;;;;;;5068417;28;20028;-68
2022/02/19 07:47:29;;;;;;;10.23;1.88;;;4.80;99.90;;;;;;5063689;28;20063;-68
2022/02/19 07:58:18;;;;;;;14.02;1.83;;;5.00;99.90;;;;;;5065095;28;20513;-68
2022/02/19 08:01:12;;;;;;;21.73;2.47;;;5.00;99.90;;;;;;5067349;28;20045;-68
2022/02/19 08:03:38;;;;;;;14.48;2.00;;;5.00;99.90;;;;;;5064978;28;20494;-68
2022/02/19 08:06:04;;;;;;;11.32;1.90;;;5.10;99.90;;;;;;5070701;28;20082;-68
2022/02/19 08:08:30;;;;;;;10.50;1.67;;;5.20;99.90;;;;;;5065584;28;20082;-68
2022/02/19 08:10:56;;;;;;;14.80;2.08;;;5.10;99.90;;;;;;5093680;28;20037;-68
2022/02/19 08:13:23;;;;;;;23.05;1.90;;;5.10;99.90;;;;;;5067979;28;20047;-67
2022/02/19 08:15:52;;;;;;;20.73;2.63;;;5.10;99.90;;;;;;5087129;28;20056;-67
2022/02/19 08:18:18;;;;;;;17.75;1.95;;;5.10;99.90;;;;;;5069528;28;20048;-68
2022/02/19 08:20:46;;;;;;;11.10;2.10;;;5.10;99.90;;;;;;5065418;28;20536;-68
2022/02/19 08:23:14;;;;;;;10.20;1.15;;;5.10;99.90;;;;;;5096566;28;20119;-68
2022/02/19 08:25:40;;;;;;;9.48;1.27;;;5.10;99.90;;;;;;5065379;28;20085;-68
2022/02/19 08:28:06;;;;;;;12.88;1.45;;;5.00;99.90;;;;;;5067970;28;20048;-71
2022/02/19 08:30:33;;;;;;;6.22;1.63;;;4.90;99.90;;;;;;5062403;28;20033;-70
2022/02/19 08:32:59;;;;;;;6.78;1.17;;;4.80;99.90;;;;;;5069449;28;20498;-71
2022/02/19 08:35:25;;;;;;;10.43;1.63;;;4.80;99.90;;;;;;5069589;28;20040;-71
2022/02/19 08:37:50;;;;;;;7.65;1.17;;;4.70;99.90;;;;;;5071230;28;20037;-71
2022/02/19 08:40:16;;;;;;;13.25;1.42;;;4.70;99.90;;;;;;5067121;28;20036;-70
2022/02/19 08:42:43;;;;;;;8.90;1.13;;;4.80;99.90;;;;;;5066810;28;20059;-70
2022/02/19 08:45:09;;;;;;;13.55;1.75;;;4.80;99.90;;;;;;5066429;28;20060;-68
2022/02/19 08:47:34;;;;;;;14.80;1.98;;;4.80;99.90;;;;;;5069897;28;20051;-67
2022/02/19 08:50:01;;;;;;;15.13;2.00;;;4.90;99.90;;;;;;5069557;28;20041;-75
2022/02/19 08:52:27;;;;;;;10.23;2.00;;;4.90;99.90;;;;;;5065877;28;20055;-69
2022/02/19 08:54:53;;;;;;;16.83;2.40;;;5.10;99.90;;;;;;5066187;28;20072;-70
2022/02/19 08:57:19;;;;;;;17.35;1.80;;;5.30;99.90;;;;;;5067033;28;20483;-72
2022/02/19 08:59:44;;;;;;;16.02;2.25;;;5.40;99.90;;;;;;5063584;28;20131;-69
2022/02/19 09:02:10;;;;;;;11.45;1.83;;;5.60;99.90;;;;;;5066855;28;20119;-73
2022/02/19 09:04:36;;;;;;;12.23;1.67;;;5.70;99.90;;;;;;5051460;28;20048;-71
2022/02/19 09:07:02;;;;;;;13.15;2.05;;;5.80;99.90;;;;;;5067118;28;20190;-70
2022/02/19 09:09:28;;;;;;;16.20;2.60;;;5.80;99.90;;;;;;5096818;28;20546;-72
2022/02/19 09:11:54;;;;;;;10.25;2.15;;;5.90;99.90;;;;;;5069455;28;20040;-69
2022/02/19 09:14:20;;;;;;;12.50;1.90;;;5.90;99.90;;;;;;5066763;28;20490;-71
2022/02/19 09:16:46;;;;;;;16.25;2.95;;;6.00;99.90;;;;;;5065250;28;20482;-72
2022/02/19 09:19:12;;;;;;;15.38;3.67;;;6.10;99.90;;;;;;5067068;28;20037;-72
2022/02/19 09:21:40;;;;;;;14.10;1.73;;;6.10;99.90;;;;;;5069725;28;20040;-76
2022/02/19 09:24:06;;;;;;;15.52;1.98;;;6.10;99.90;;;;;;5068791;28;20497;-73
2022/02/19 09:26:31;;;;;;;16.00;2.33;;;6.10;99.90;;;;;;5071945;28;20119;-71
2022/02/19 09:28:57;;;;;;;14.23;1.70;;;6.10;99.90;;;;;;5066664;28;20506;-71
2022/02/19 09:31:22;;;;;;;13.65;2.10;;;6.10;99.90;;;;;;5067621;28;20047;-71
2022/02/19 09:33:49;;;;;;;16.08;2.00;;;6.00;99.90;;;;;;5067301;28;20076;-70
2022/02/19 09:36:15;;;;;;;10.57;1.52;;;6.10;99.90;;;;;;5069277;28;20474;-70
2022/02/19 09:38:41;;;;;;;10.95;1.90;;;6.20;99.90;;;;;;5067709;28;20040;-71
2022/02/19 09:41:13;;;;;;;17.08;2.13;;;6.30;99.90;;;;;;5068938;28;20051;-72
2022/02/19 09:43:41;;;;;;;12.27;1.80;;;6.20;99.90;;;;;;5064463;28;20076;-71
2022/02/19 09:46:07;;;;;;;14.00;1.80;;;6.30;99.90;;;;;;5069896;28;20041;-70
2022/02/19 09:48:34;;;;;;;15.30;2.33;;;6.30;99.90;;;;;;5069233;28;20124;-68
2022/02/19 09:51:01;;;;;;;11.10;2.47;;;6.30;99.90;;;;;;5069202;28;20076;-70
2022/02/19 09:53:27;;;;;;;23.25;2.28;;;6.30;99.90;;;;;;5067177;28;20105;-67
2022/02/19 09:55:55;;;;;;;19.58;2.33;;;6.30;99.90;;;;;;5064619;28;20502;-67
2022/02/19 09:58:22;;;;;;;18.17;3.13;;;6.40;99.90;;;;;;5070443;28;20080;-68
2022/02/19 10:00:48;;;;;;;16.55;2.55;;;6.40;99.90;;;;;;5067990;28;20044;-69
2022/02/19 10:03:23;;;;;;;13.23;2.17;;;6.60;99.90;;;;;;5062930;28;20048;-70
2022/02/19 10:05:54;;;;;;;16.73;2.10;;;6.70;99.90;;;;;;5066884;28;20070;-70
2022/02/19 10:08:20;;;;;;;16.75;1.95;;;6.70;99.90;;;;;;5097142;28;20052;-69
2022/02/19 10:10:55;;;;;;;22.90;2.40;;;6.70;99.90;;;;;;5102051;28;20044;-67
2022/02/19 10:13:36;;;;;;;11.93;2.05;;;6.70;99.90;;;;;;5072729;28;20442;-68
2022/02/19 10:16:06;;;;;;;26.92;4.05;;;6.70;99.90;;;;;;5073177;28;20041;-68
2022/02/19 10:18:34;;;;;;;28.40;4.00;;;6.60;99.90;;;;;;5071206;28;20513;-68
2022/02/19 10:21:13;;;;;;;17.38;2.33;;;6.70;99.90;;;;;;5072207;28;20052;-70
2022/02/19 10:23:41;;;;;;;13.93;2.25;;;6.70;99.90;;;;;;5067516;28;20612;-69
2022/02/19 10:26:08;;;;;;;15.20;2.17;;;6.70;99.90;;;;;;5068170;28;20036;-70
2022/02/19 10:28:34;;;;;;;10.68;2.33;;;6.80;99.90;;;;;;5068807;28;20131;-70
2022/02/19 10:31:16;;;;;;;20.25;2.20;;;6.90;99.90;;;;;;5098910;28;20040;-71
2022/02/19 10:33:43;;;;;;;19.17;3.55;;;7.00;99.90;;;;;;5098333;28;20095;-68
2022/02/19 10:36:20;;;;;;;14.82;2.65;;;7.20;99.90;;;;;;5099536;28;20049;-70
2022/02/19 10:38:56;;;;;;;19.33;2.80;;;7.20;99.90;;;;;;5071627;28;20099;-68
2022/02/19 10:41:33;;;;;;;15.95;2.17;;;7.30;99.90;;;;;;5069870;28;20037;-69
2022/02/19 10:43:59;;;;;;;14.20;2.50;;;7.20;99.90;;;;;;5068365;28;20159;-68
2022/02/19 10:46:27;;;;;;;19.83;2.40;;;7.30;99.90;;;;;;5067132;28;20916;-69
2022/02/19 10:48:53;;;;;;;14.15;1.83;;;7.20;99.90;;;;;;5067251;28;20553;-67
2022/02/19 10:51:19;;;;;;;9.48;2.15;;;7.10;99.90;;;;;;5068281;28;20032;-68
2022/02/19 10:53:56;;;;;;;13.70;3.60;;;7.10;99.90;;;;;;5099363;28;20052;-67
2022/02/19 10:56:22;;;;;;;13.23;2.17;;;7.00;99.90;;;;;;5067745;28;20051;-68
2022/02/19 10:59:02;;;;;;;10.68;1.38;;;7.00;99.90;;;;;;5073706;28;20052;-69
2022/02/19 11:01:28;;;;;;;11.45;1.75;;;7.00;99.90;;;;;;5069544;28;20085;-66
2022/02/19 11:03:54;;;;;;;13.52;2.15;;;7.00;99.90;;;;;;5069504;28;20031;-67
2022/02/19 11:06:21;;;;;;;14.38;1.98;;;7.10;99.90;;;;;;5070008;28;20037;-68
2022/02/19 11:08:47;;;;;;;10.65;2.75;;;7.20;99.90;;;;;;5075940;28;20106;-68
2022/02/19 11:11:13;;;;;;;11.02;1.63;;;7.20;99.90;;;;;;5102950;28;20040;-72
2022/02/19 11:13:39;;;;;;;10.80;1.95;;;7.10;99.90;;;;;;5068280;28;20047;-69
2022/02/19 11:16:06;;;;;;;9.93;1.20;;;7.10;99.90;;;;;;5095136;28;20040;-70
2022/02/19 11:18:35;;;;;;;12.77;2.10;;;7.00;99.90;;;;;;5065692;28;20121;-70
2022/02/19 11:21:03;;;;;;;13.50;1.80;;;7.00;99.90;;;;;;5069557;28;20040;-70
2022/02/19 11:23:34;;;;;;;9.48;2.13;;;7.10;99.90;;;;;;5071163;28;20036;-70
2022/02/19 11:26:01;;;;;;;9.60;1.38;;;7.30;99.90;;;;;;5065929;28;20032;-70
2022/02/19 11:28:35;;;;;;;12.77;1.67;;;7.60;99.90;;;;;;5066674;28;20078;-70
2022/02/19 11:31:05;;;;;;;12.13;1.88;;;7.90;99.90;;;;;;5067276;28;20036;-70
2022/02/19 11:33:32;;;;;;;10.10;2.05;;;8.10;99.90;;;;;;5065469;28;20522;-70
2022/02/19 11:36:03;;;;;;;12.18;1.60;;;8.20;99.90;;;;;;5064447;28;20048;-76
2022/02/19 11:38:37;;;;;;;16.35;2.22;;;8.10;99.90;;;;;;5094222;28;20041;-75
2022/02/19 11:41:10;;;;;;;10.35;1.35;;;8.00;99.90;;;;;;5066535;28;20509;-75
2022/02/19 11:43:45;;;;;;;14.25;1.98;;;7.80;99.90;;;;;;5068108;28;20078;-76
2022/02/19 11:46:31;;;;;;;10.68;2.03;;;7.70;99.90;;;;;;5063666;28;20036;-75
2022/02/19 11:48:57;;;;;;;8.50;1.67;;;7.60;99.90;;;;;;5076051;28;20119;-75
2022/02/19 11:51:27;;;;;;;10.88;1.75;;;7.40;99.90;;;;;;5070583;28;20496;-75
2022/02/19 11:54:03;;;;;;;12.82;2.38;;;7.50;99.90;;;;;;5067494;28;20045;-75
2022/02/19 11:56:32;;;;;;;;;;;7.50;99.90;;;;;;5068396;28;20093;-75
2022/02/19 11:59:01;;;;;;;8.15;1.77;;;7.60;99.90;;;;;;5068089;28;19924;-75
2022/02/19 12:01:28;;;;;;;13.75;2.00;;;7.50;99.90;;;;;;5065785;28;20047;-75
2022/02/19 12:04:13;;;;;;;9.20;1.40;;;7.50;99.90;;;;;;5069031;28;20486;-75
2022/02/19 12:06:41;;;;;;;14.07;2.03;;;7.50;99.90;;;;;;5066013;28;20606;-75
2022/02/19 12:09:10;;;;;;;6.60;2.08;;;7.50;99.90;;;;;;5067746;28;20496;-75
2022/02/19 12:11:58;;;;;;;10.18;1.48;;;7.50;99.90;;;;;;5065403;28;20044;-76
2022/02/19 12:14:42;;;;;;;12.63;1.98;;;7.60;99.90;;;;;;5067017;28;20063;-75
2022/02/19 12:17:13;;;;;;;11.20;1.75;;;7.90;99.90;;;;;;5064097;28;20048;-76
2022/02/19 12:19:59;;;;;;;11.98;1.33;;;8.20;99.90;;;;;;5079840;28;20052;-76
2022/02/19 12:22:36;;;;;;;9.05;1.48;;;8.50;98.30;;;;;;5066729;28;20040;-75
2022/02/19 12:25:07;;;;;;;7.70;1.55;;;8.50;99.90;;;;;;5071564;28;20040;-76
2022/02/19 12:27:34;;;;;;;10.57;1.33;;;8.50;99.90;;;;;;5064049;28;20091;-76
2022/02/19 12:30:29;;;;;;;11.30;1.63;;;8.70;99.90;;;;;;5091357;28;20451;-76
2022/02/19 12:33:01;;;;;;;14.32;1.55;;;8.90;99.90;;;;;;5064862;28;20073;-75
2022/02/19 12:35:43;;;;;;;10.52;1.55;;;8.90;99.70;;;;;;5063424;28;20044;-76
2022/02/19 12:38:13;;;;;;;11.60;2.22;;;8.80;98.50;;;;;;5089583;28;20171;-75
2022/02/19 12:40:40;;;;;;;11.27;2.10;;;8.70;99.30;;;;;;5067237;28;20067;-76
2022/02/19 12:43:12;;;;;;;10.38;1.58;;;8.70;99.90;;;;;;5094479;28;20051;-75
2022/02/19 12:45:38;;;;;;;9.65;1.77;;;8.60;97.60;;;;;;5065856;28;20493;-75
2022/02/19 12:48:04;;;;;;;12.10;1.88;;;8.60;97.60;;;;;;5064589;28;21906;-76
2022/02/19 12:50:30;;;;;;;11.32;1.50;;;8.70;96.70;;;;;;5065624;28;20055;-75
2022/02/19 12:52:56;;;;;;;11.10;1.58;;;8.70;97.70;;;;;;5066727;28;20379;-75
2022/02/19 12:55:22;;;;;;;17.70;1.60;;;8.50;96.50;;;;;;5067977;28;20045;-75
2022/02/19 12:57:51;;;;;;;13.57;1.70;;;8.50;98.60;;;;;;5092174;28;20032;-75